createdAt,value
2022-08-10T00:00:53.533Z,100.00
2022-08-10T00:03:20.658Z,100.00
2022-08-10T00:05:52.722Z,100.00
2022-08-10T00:08:24.140Z,100.00
2022-08-10T00:10:56.480Z,100.00
2022-08-10T00:13:25.446Z,100.00
2022-08-10T00:15:54.889Z,100.00
2022-08-10T00:18:34.431Z,100.00
2022-08-10T00:21:05.643Z,100.00
2022-08-10T00:23:33.496Z,100.00
2022-08-10T00:26:00.761Z,100.00
2022-08-10T00:28:27.933Z,100.00
2022-08-10T00:30:56.060Z,100.00
2022-08-10T00:33:23.234Z,100.00
2022-08-10T00:35:50.765Z,100.00
2022-08-10T00:38:18.052Z,100.00
2022-08-10T00:40:46.165Z,100.00
2022-08-10T00:43:13.342Z,100.00
2022-08-10T00:45:40.476Z,100.00
2022-08-10T00:48:07.652Z,100.00
2022-08-10T00:50:34.880Z,100.00
2022-08-10T00:53:02.360Z,100.00
2022-08-10T00:55:29.963Z,100.00
2022-08-10T00:57:57.763Z,100.00
2022-08-10T01:00:25.129Z,100.00
2022-08-10T01:02:53.308Z,100.00
2022-08-10T01:05:21.941Z,100.00
2022-08-10T01:08:15.182Z,100.00
2022-08-10T01:10:55.975Z,100.00
2022-08-10T01:13:29.006Z,100.00
2022-08-10T01:16:23.263Z,100.00
2022-08-10T01:19:15.209Z,100.00
2022-08-10T01:21:54.250Z,100.00
2022-08-10T01:24:39.169Z,100.00
2022-08-10T01:27:43.645Z,100.00
2022-08-10T01:30:18.920Z,100.00
2022-08-10T01:33:00.254Z,100.00
2022-08-10T01:35:45.273Z,100.00
2022-08-10T01:38:20.471Z,100.00
2022-08-10T01:40:54.969Z,100.00
2022-08-10T01:43:25.250Z,100.00
2022-08-10T01:45:55.903Z,100.00
2022-08-10T01:48:31.684Z,100.00
2022-08-10T01:51:11.147Z,100.00
2022-08-10T01:53:54.394Z,100.00
2022-08-10T01:56:24.394Z,100.00
2022-08-10T01:58:56.884Z,100.00
2022-08-10T02:01:28.439Z,100.00
2022-08-10T02:04:05.166Z,100.00
2022-08-10T02:06:45.190Z,100.00
2022-08-10T02:12:08.585Z,100.00
2022-08-10T02:14:51.007Z,100.00
2022-08-10T02:17:57.511Z,100.00
2022-08-10T02:20:20.474Z,100.00
2022-08-10T02:22:55.085Z,100.00
2022-08-10T02:25:41.537Z,100.00
2022-08-10T02:28:29.992Z,100.00
2022-08-10T02:31:23.078Z,100.00
2022-08-10T02:33:57.268Z,100.00
2022-08-10T02:36:29.561Z,100.00
2022-08-10T02:39:01.386Z,100.00
2022-08-10T02:45:01.644Z,100.00
2022-08-10T02:45:17.812Z,100.00
2022-08-10T02:47:30.247Z,100.00
2022-08-10T02:50:31.813Z,100.00
2022-08-10T02:53:04.198Z,100.00
2022-08-10T02:55:49.548Z,100.00
2022-08-10T02:58:26.332Z,100.00
2022-08-10T03:00:56.567Z,100.00
2022-08-10T03:03:29.615Z,100.00
2022-08-10T03:06:03.640Z,100.00
2022-08-10T03:08:34.616Z,100.00
2022-08-10T03:11:04.922Z,100.00
2022-08-10T03:13:33.756Z,100.00
2022-08-10T03:16:01.652Z,100.00
2022-08-10T03:18:29.548Z,100.00
2022-08-10T03:20:57.630Z,100.00
2022-08-10T03:23:26.947Z,100.00
2022-08-10T03:25:57.115Z,100.00
2022-08-10T03:28:27.682Z,100.00
2022-08-10T03:30:58.117Z,100.00
2022-08-10T03:33:29.043Z,100.00
2022-08-10T03:36:43.620Z,100.00
2022-08-10T03:38:46.204Z,100.00
2022-08-10T03:41:15.902Z,100.00
2022-08-10T03:43:48.206Z,100.00
2022-08-10T03:46:19.055Z,100.00
2022-08-10T03:48:50.233Z,100.00
2022-08-10T03:51:22.599Z,100.00
2022-08-10T03:54:03.818Z,100.00
2022-08-10T03:56:36.519Z,100.00
2022-08-10T03:59:04.675Z,100.00
2022-08-10T04:02:52.195Z,100.00
2022-08-10T04:04:24.080Z,100.00
2022-08-10T04:06:55.119Z,100.00
2022-08-10T04:09:29.690Z,100.00
2022-08-10T04:12:15.454Z,100.00
2022-08-10T04:14:50.713Z,100.00
2022-08-10T04:18:02.810Z,100.00
2022-08-10T04:20:29.968Z,100.00
2022-08-10T04:23:07.876Z,100.00
2022-08-10T04:25:36.633Z,100.00
2022-08-10T04:28:04.206Z,100.00
2022-08-10T04:30:32.450Z,100.00
2022-08-10T04:33:03.343Z,100.00
2022-08-10T04:35:32.479Z,100.00
2022-08-10T04:38:02.174Z,100.00
2022-08-10T04:40:31.025Z,100.00
2022-08-10T04:43:04.430Z,100.00
2022-08-10T04:45:47.547Z,100.00
2022-08-10T04:48:41.201Z,100.00
2022-08-10T04:51:20.447Z,100.00
2022-08-10T04:54:03.747Z,100.00
2022-08-10T04:56:38.580Z,100.00
2022-08-10T04:59:07.914Z,100.00
2022-08-10T05:02:21.590Z,100.00
2022-08-10T05:04:35.095Z,100.00
2022-08-10T05:07:10.960Z,100.00
2022-08-10T05:10:01.828Z,100.00
2022-08-10T05:12:27.733Z,100.00
2022-08-10T05:14:55.524Z,100.00
2022-08-10T05:17:23.778Z,100.00
2022-08-10T05:20:04.089Z,100.00
2022-08-10T05:22:41.789Z,100.00
2022-08-10T05:25:12.404Z,100.00
2022-08-10T05:27:41.196Z,100.00
2022-08-10T05:30:11.161Z,100.00
2022-08-10T05:32:56.960Z,100.00
2022-08-10T05:35:26.917Z,100.00
2022-08-10T05:38:12.330Z,100.00
2022-08-10T05:49:13.923Z,100.00
2022-08-10T05:51:58.553Z,100.00
2022-08-10T06:08:44.300Z,100.00
2022-08-10T06:12:26.639Z,100.00
2022-08-10T06:14:22.676Z,100.00
2022-08-10T06:16:57.873Z,100.00
2022-08-10T06:19:26.001Z,100.00
2022-08-10T06:22:00.730Z,100.00
2022-08-10T06:24:46.469Z,100.00
2022-08-10T06:27:34.278Z,100.00
2022-08-10T06:30:02.031Z,100.00
2022-08-10T06:32:30.931Z,100.00
2022-08-10T06:35:00.528Z,100.00
2022-08-10T06:37:29.425Z,100.00
2022-08-10T06:39:56.770Z,100.00
2022-08-10T06:42:34.255Z,100.00
2022-08-10T06:45:15.508Z,100.00
2022-08-10T06:47:59.612Z,100.00
2022-08-10T06:53:21.923Z,100.00
2022-08-10T06:56:02.513Z,100.00
2022-08-10T06:58:36.838Z,100.00
2022-08-10T07:01:09.357Z,100.00
2022-08-10T07:03:44.836Z,100.00
2022-08-10T07:06:14.000Z,100.00
2022-08-10T07:08:42.229Z,100.00
2022-08-10T07:11:12.143Z,100.00
2022-08-10T07:14:16.083Z,100.00
2022-08-10T07:16:31.104Z,100.00
2022-08-10T07:19:00.407Z,98.45
2022-08-10T07:21:29.045Z,94.86
2022-08-10T07:24:00.823Z,98.10
2022-08-10T07:26:30.750Z,100.00
2022-08-10T07:28:59.287Z,100.00
2022-08-10T07:31:36.137Z,100.00
2022-08-10T07:34:28.911Z,100.00
2022-08-10T07:37:03.648Z,100.00
2022-08-10T07:39:58.265Z,100.00
2022-08-10T07:42:23.109Z,100.00
2022-08-10T07:44:51.424Z,100.00
2022-08-10T07:47:52.312Z,99.40
2022-08-10T07:50:12.872Z,96.08
2022-08-10T07:52:40.997Z,94.82
2022-08-10T07:55:14.435Z,91.12
2022-08-10T07:57:44.443Z,89.54
2022-08-10T08:00:12.647Z,88.59
2022-08-10T08:02:45.026Z,81.98
2022-08-10T08:05:57.462Z,85.49
2022-08-10T08:08:03.857Z,81.58
2022-08-10T08:10:31.727Z,82.84
2022-08-10T08:13:01.318Z,85.69
2022-08-10T08:16:16.720Z,78.00
2022-08-10T08:18:23.008Z,75.65
2022-08-10T08:20:54.394Z,75.11
2022-08-10T08:24:09.124Z,75.72
2022-08-10T08:26:11.748Z,71.50
2022-08-10T08:28:45.722Z,67.56
2022-08-10T08:31:15.938Z,67.04
2022-08-10T08:33:45.502Z,64.64
2022-08-10T08:36:15.924Z,63.29
2022-08-10T08:38:44.026Z,62.12
2022-08-10T08:41:52.877Z,62.17
2022-08-10T08:44:38.869Z,62.16
2022-08-10T08:48:03.279Z,59.96
2022-08-10T08:50:45.569Z,58.29
2022-08-10T08:53:21.842Z,59.54
2022-08-10T08:56:21.948Z,56.48
2022-08-10T08:59:08.748Z,57.47
2022-08-10T09:01:49.969Z,58.28
2022-08-10T09:04:55.709Z,58.73
2022-08-10T09:08:08.198Z,57.69
2022-08-10T09:10:52.735Z,56.63
2022-08-10T09:13:27.381Z,55.33
2022-08-10T09:16:13.306Z,55.86
2022-08-10T09:18:56.024Z,54.81
2022-08-10T09:21:43.165Z,54.29
2022-08-10T09:24:46.298Z,53.14
2022-08-10T09:27:24.298Z,52.56
2022-08-10T09:29:57.224Z,51.60
2022-08-10T09:36:15.122Z,52.40
2022-08-10T09:36:27.000Z,50.75
2022-08-10T09:38:37.989Z,49.85
2022-08-10T09:41:16.286Z,50.14
2022-08-10T09:43:56.849Z,50.35
2022-08-10T09:46:59.189Z,50.17
2022-08-10T09:50:02.244Z,49.67
2022-08-10T09:52:43.547Z,48.40
2022-08-10T09:56:19.250Z,49.04
2022-08-10T09:59:29.323Z,47.91
2022-08-10T10:02:18.164Z,45.41
2022-08-10T10:04:54.443Z,44.49
2022-08-10T10:07:29.229Z,44.32
2022-08-10T10:10:07.883Z,43.96
2022-08-10T10:12:55.527Z,43.67
2022-08-10T10:15:50.836Z,41.33
2022-08-10T10:18:34.578Z,42.68
2022-08-10T10:21:07.687Z,42.87
2022-08-10T10:24:21.095Z,42.13
2022-08-10T10:26:52.961Z,42.78
2022-08-10T10:29:57.394Z,42.86
2022-08-10T10:32:47.552Z,43.84
2022-08-10T10:35:23.656Z,44.85
2022-08-10T10:38:01.064Z,45.40
2022-08-10T10:41:03.195Z,47.63
2022-08-10T10:43:47.281Z,45.61
2022-08-10T10:46:38.971Z,43.82
2022-08-10T10:49:20.789Z,43.36
2022-08-10T10:52:02.232Z,42.67
2022-08-10T10:54:39.293Z,41.92
2022-08-10T10:57:18.491Z,43.38
2022-08-10T11:00:05.695Z,43.26
2022-08-10T11:02:55.705Z,42.70
2022-08-10T11:06:00.265Z,43.39
2022-08-10T11:08:34.421Z,44.46
2022-08-10T11:11:25.327Z,40.92
2022-08-10T11:14:25.577Z,40.43
2022-08-10T11:17:18.807Z,40.46
2022-08-10T11:20:04.345Z,39.47
2022-08-10T11:22:48.291Z,39.32
2022-08-10T11:25:27.586Z,38.52
2022-08-10T11:28:20.505Z,38.66
2022-08-10T11:31:05.240Z,39.02
2022-08-10T11:34:47.318Z,38.62
2022-08-10T11:37:22.151Z,38.01
2022-08-10T11:40:15.454Z,37.64
2022-08-10T11:42:51.235Z,38.19
2022-08-10T11:45:25.459Z,38.31
2022-08-10T11:48:52.807Z,37.12
2022-08-10T11:51:18.952Z,37.58
2022-08-10T11:53:57.081Z,37.46
2022-08-10T11:56:31.700Z,36.37
2022-08-10T11:59:17.680Z,35.77
2022-08-10T12:01:47.604Z,35.38
2022-08-10T12:04:16.560Z,35.03
2022-08-10T12:06:55.531Z,35.49
2022-08-10T12:10:09.836Z,36.55
2022-08-10T12:12:17.400Z,36.56
2022-08-10T12:15:00.209Z,36.76
2022-08-10T12:17:33.991Z,36.06
2022-08-10T12:20:17.620Z,35.99
2022-08-10T12:23:22.336Z,36.41
2022-08-10T12:26:02.391Z,37.50
2022-08-10T12:29:08.868Z,35.62
2022-08-10T12:31:54.301Z,35.64
2022-08-10T12:34:34.591Z,36.36
2022-08-10T12:37:35.489Z,37.37
2022-08-10T12:40:38.194Z,37.84
2022-08-10T12:44:06.788Z,38.15
2022-08-10T12:46:20.387Z,37.98
2022-08-10T12:48:57.319Z,38.26
2022-08-10T12:51:30.434Z,38.60
2022-08-10T12:54:32.743Z,38.28
2022-08-10T12:57:02.258Z,38.54
2022-08-10T12:59:31.682Z,38.98
2022-08-10T13:02:10.386Z,38.46
2022-08-10T13:04:42.385Z,37.31
2022-08-10T13:07:10.479Z,37.21
2022-08-10T13:10:18.284Z,37.77
2022-08-10T13:12:52.171Z,38.01
2022-08-10T13:15:50.113Z,38.48
2022-08-10T13:18:18.401Z,37.93
2022-08-10T13:20:51.598Z,39.90
2022-08-10T13:23:30.015Z,40.08
2022-08-10T13:26:01.000Z,38.65
2022-08-10T13:28:39.932Z,38.27
2022-08-10T13:31:16.380Z,39.75
2022-08-10T13:34:38.906Z,38.96
2022-08-10T13:36:40.229Z,39.25
2022-08-10T13:39:08.568Z,39.03
2022-08-10T13:41:39.870Z,39.58
2022-08-10T13:44:09.830Z,39.44
2022-08-10T13:46:40.466Z,39.41
2022-08-10T13:49:11.083Z,40.04
2022-08-10T13:51:53.973Z,39.18
2022-08-10T13:54:36.007Z,40.29
2022-08-10T13:57:05.038Z,40.43
2022-08-10T14:00:34.288Z,40.06
2022-08-10T14:02:25.664Z,39.36
2022-08-10T14:04:55.976Z,40.81
2022-08-10T14:07:24.117Z,38.58
2022-08-10T14:09:53.723Z,38.52
2022-08-10T14:12:32.191Z,37.18
2022-08-10T14:15:04.897Z,37.94
2022-08-10T14:17:34.970Z,37.81
2022-08-10T14:20:05.581Z,37.31
2022-08-10T14:22:37.731Z,35.03
2022-08-10T14:25:13.312Z,35.82
2022-08-10T14:28:03.700Z,35.11
2022-08-10T14:30:33.409Z,35.16
2022-08-10T14:33:04.520Z,35.30
2022-08-10T14:36:19.384Z,34.73
2022-08-10T14:38:28.880Z,34.36
2022-08-10T14:40:59.624Z,34.52
2022-08-10T14:43:33.675Z,35.01
2022-08-10T14:46:18.078Z,34.59
2022-08-10T14:48:48.346Z,35.52
2022-08-10T14:51:19.445Z,36.04
2022-08-10T14:53:54.140Z,36.47
2022-08-10T14:56:32.465Z,35.74
2022-08-10T14:59:06.893Z,36.08
2022-08-10T15:02:37.752Z,35.93
2022-08-10T15:04:30.404Z,37.52
2022-08-10T15:07:20.607Z,36.72
2022-08-10T15:10:00.496Z,37.35
2022-08-10T15:29:29.196Z,37.66
2022-08-10T15:32:25.463Z,37.10
2022-08-10T15:35:13.510Z,37.09
2022-08-10T15:37:45.493Z,37.07
2022-08-10T15:40:25.691Z,36.96
2022-08-10T15:43:20.279Z,37.34
2022-08-10T15:46:16.079Z,37.27
2022-08-10T15:48:48.508Z,36.91
2022-08-10T15:51:28.471Z,36.40
2022-08-10T15:54:13.856Z,36.10
2022-08-10T15:56:49.362Z,36.05
2022-08-10T15:59:27.034Z,36.78
2022-08-10T16:02:13.066Z,37.11
2022-08-10T16:04:54.134Z,36.55
2022-08-10T16:07:45.358Z,37.70
2022-08-10T16:10:27.354Z,37.50
2022-08-10T16:13:59.321Z,38.79
2022-08-10T16:15:58.020Z,39.56
2022-08-10T16:18:28.318Z,39.04
2022-08-10T16:21:00.921Z,38.37
2022-08-10T16:23:32.625Z,38.04
2022-08-10T16:26:14.508Z,37.59
2022-08-10T16:28:48.150Z,37.03
2022-08-10T16:31:27.075Z,36.22
2022-08-10T16:33:58.838Z,36.99
2022-08-10T16:36:37.253Z,36.60
2022-08-10T16:39:05.675Z,37.46
2022-08-10T16:42:04.081Z,36.08
2022-08-10T16:44:28.752Z,36.27
2022-08-10T16:46:58.105Z,37.16
2022-08-10T16:49:27.461Z,37.59
2022-08-10T16:51:56.449Z,37.91
2022-08-10T16:54:27.523Z,37.16
2022-08-10T16:57:02.118Z,36.92
2022-08-10T16:59:40.549Z,36.24
2022-08-10T17:02:14.178Z,36.38
2022-08-10T17:04:44.027Z,37.16
2022-08-10T17:07:16.079Z,37.18
2022-08-10T17:09:50.752Z,37.35
2022-08-10T17:12:23.584Z,37.37
2022-08-10T17:15:09.833Z,37.23
2022-08-10T17:17:44.359Z,36.43
2022-08-10T17:20:31.140Z,37.43
2022-08-10T17:23:06.804Z,37.04
2022-08-10T17:25:45.935Z,38.47
2022-08-10T17:28:33.055Z,38.06
2022-08-10T17:31:38.099Z,38.14
2022-08-10T17:34:01.681Z,37.34
2022-08-10T17:36:34.520Z,36.80
2022-08-10T17:39:03.656Z,36.96
2022-08-10T17:41:33.964Z,37.60
2022-08-10T17:44:05.124Z,38.45
2022-08-10T17:46:38.578Z,38.27
2022-08-10T17:49:08.950Z,38.67
2022-08-10T17:51:39.563Z,39.02
2022-08-10T17:54:23.764Z,38.76
2022-08-10T17:56:52.350Z,39.64
2022-08-10T17:59:24.864Z,40.04
2022-08-10T18:02:02.239Z,40.04
2022-08-10T18:04:41.401Z,40.56
2022-08-10T18:07:11.681Z,40.42
2022-08-10T18:09:51.665Z,40.42
2022-08-10T18:12:30.887Z,40.47
2022-08-10T18:15:08.421Z,40.40
2022-08-10T18:17:40.819Z,40.45
2022-08-10T18:20:10.008Z,41.65
2022-08-10T18:22:44.762Z,41.81
2022-08-10T18:25:26.258Z,41.91
2022-08-10T18:28:03.639Z,42.57
2022-08-10T18:30:45.099Z,43.09
2022-08-10T18:33:14.347Z,43.47
2022-08-10T18:35:44.751Z,43.91
2022-08-10T18:38:13.464Z,44.47
2022-08-10T18:40:45.084Z,44.86
2022-08-10T18:44:06.820Z,45.05
2022-08-10T18:46:09.215Z,45.54
2022-08-10T18:48:42.094Z,45.59
2022-08-10T18:51:12.319Z,46.36
2022-08-10T18:53:50.742Z,46.03
2022-08-10T18:56:20.737Z,46.31
2022-08-10T18:58:50.899Z,47.03
2022-08-10T19:01:48.579Z,47.10
2022-08-10T19:04:15.685Z,46.95
2022-08-10T19:07:01.477Z,46.93
2022-08-10T19:09:46.737Z,46.94
2022-08-10T19:12:31.711Z,47.21
2022-08-10T19:15:23.011Z,47.58
2022-08-10T19:18:13.816Z,48.05
2022-08-10T19:20:53.867Z,48.19
2022-08-10T19:23:34.158Z,47.80
2022-08-10T19:26:41.581Z,48.25
2022-08-10T19:30:07.985Z,48.49
2022-08-10T19:32:50.891Z,49.02
2022-08-10T19:36:04.516Z,49.89
2022-08-10T19:38:52.535Z,50.26
2022-08-10T19:41:44.783Z,51.39
2022-08-10T19:44:35.874Z,51.68
2022-08-10T19:47:11.928Z,52.25
2022-08-10T19:49:55.309Z,51.60
2022-08-10T19:52:40.660Z,51.12
2022-08-10T19:55:50.541Z,51.25
2022-08-10T19:58:27.941Z,50.93
2022-08-10T20:01:06.920Z,51.19
2022-08-10T20:03:49.478Z,51.18
2022-08-10T20:06:20.432Z,51.33
2022-08-10T20:08:54.498Z,51.57
2022-08-10T20:11:45.883Z,51.97
2022-08-10T20:14:39.175Z,53.08
2022-08-10T20:17:16.143Z,53.43
2022-08-10T20:19:56.158Z,54.28
2022-08-10T20:22:30.388Z,54.65
2022-08-10T20:25:18.159Z,55.48
2022-08-10T20:28:00.933Z,56.09
2022-08-10T20:30:34.724Z,56.72
2022-08-10T20:33:23.271Z,57.72
2022-08-10T20:35:58.421Z,58.05
2022-08-10T20:38:34.234Z,58.71
2022-08-10T20:41:49.205Z,59.74
2022-08-10T20:44:39.311Z,60.66
2022-08-10T20:47:42.604Z,60.82
2022-08-10T20:50:40.146Z,62.74
2022-08-10T20:53:15.284Z,64.99
2022-08-10T20:55:54.878Z,66.88
2022-08-10T20:58:49.900Z,68.56
2022-08-10T21:01:23.448Z,68.99
2022-08-10T21:04:13.794Z,69.68
2022-08-10T21:07:05.563Z,69.79
2022-08-10T21:09:51.181Z,71.16
2022-08-10T21:12:57.628Z,72.19
